Time;durP1;ratioP1;P1;durP2;ratioP2;P2;SDS_P1;SDS_P2;PMS_P1;PMS_P2;Temp;Humidity;BMP_temperature;BMP_pressure;BME280_temperature;BME280_humidity;BME280_pressure;Samples;Min_cycle;Max_cycle;Signal;HPM_P1;HPM_P2
2023/07/14 00:00:57;;;;;;;3.88;2.60;;;14.70;99.90;;;;;;6154755;23;20030;-87
2023/07/14 00:03:45;;;;;;;3.78;2.60;;;14.50;99.90;;;;;;6154760;23;20108;-83
2023/07/14 00:06:34;;;;;;;7.47;2.67;;;14.40;99.90;;;;;;6154124;23;20025;-84
2023/07/14 00:09:30;;;;;;;3.88;2.53;;;14.40;99.90;;;;;;6154430;23;20028;-84
2023/07/14 00:12:23;;;;;;;5.68;3.25;;;14.40;99.90;;;;;;6155302;23;20405;-87
2023/07/14 00:15:10;;;;;;;7.28;3.05;;;14.20;99.90;;;;;;6155535;23;20061;-86
2023/07/14 00:18:11;;;;;;;5.35;2.97;;;14.10;99.90;;;;;;6154863;23;20037;-86
2023/07/14 00:21:01;;;;;;;5.22;3.00;;;14.00;99.90;;;;;;6154059;23;20039;-86
2023/07/14 00:23:50;;;;;;;4.82;2.60;;;14.00;99.90;;;;;;6155452;23;20496;-85
2023/07/14 00:26:38;;;;;;;5.72;2.70;;;14.10;99.90;;;;;;6154195;23;20123;-85
2023/07/14 00:29:36;;;;;;;5.07;2.72;;;14.20;99.90;;;;;;6153980;23;20029;-85
2023/07/14 00:32:24;;;;;;;4.47;2.70;;;14.30;99.90;;;;;;6154190;23;20079;-84
2023/07/14 00:35:20;;;;;;;6.65;3.03;;;14.40;99.90;;;;;;6153365;23;20037;-86
2023/07/14 00:38:09;;;;;;;6.40;2.58;;;14.50;99.90;;;;;;6154154;23;20036;-85
2023/07/14 00:40:56;;;;;;;6.05;2.72;;;14.50;99.90;;;;;;6154993;23;20429;-86
2023/07/14 00:43:45;;;;;;;3.97;2.42;;;14.40;99.90;;;;;;6155202;23;20108;-85
2023/07/14 00:46:33;;;;;;;6.47;2.63;;;14.40;99.90;;;;;;6155320;23;20025;-85
2023/07/14 00:49:34;;;;;;;5.88;2.70;;;14.20;99.90;;;;;;6152549;23;20025;-86
2023/07/14 00:52:29;;;;;;;8.95;2.67;;;14.10;99.90;;;;;;6152734;23;20037;-85
2023/07/14 00:55:29;;;;;;;4.78;2.65;;;14.00;99.90;;;;;;6151875;23;20025;-86
2023/07/14 00:58:26;;;;;;;3.42;2.30;;;14.00;99.90;;;;;;6154198;23;20026;-85
2023/07/14 01:01:21;;;;;;;5.50;2.72;;;13.90;99.90;;;;;;6174071;23;20036;-86
2023/07/14 01:04:09;;;;;;;4.70;3.08;;;13.90;99.90;;;;;;6153447;23;20029;-85
2023/07/14 01:06:56;;;;;;;6.07;2.80;;;13.90;99.90;;;;;;6155684;23;20036;-85
2023/07/14 01:09:46;;;;;;;4.57;2.60;;;13.80;99.90;;;;;;6156150;23;20055;-85
2023/07/14 01:12:39;;;;;;;7.47;2.60;;;13.70;99.90;;;;;;6156213;23;20036;-86
2023/07/14 01:15:26;;;;;;;;;;;13.60;99.90;;;;;;6155349;23;20048;-86
2023/07/14 01:18:13;;;;;;;4.97;2.58;;;13.60;1.00;;;;;;6153309;23;19924;-86
2023/07/14 01:21:03;;;;;;;5.32;3.05;;;13.50;1.00;;;;;;6154881;23;20426;-85
2023/07/14 01:24:09;;;;;;;3.95;2.38;;;13.50;1.00;;;;;;6153934;23;20040;-86
2023/07/14 01:27:04;;;;;;;4.90;2.30;;;13.40;1.00;;;;;;6154780;23;20021;-85
2023/07/14 01:29:53;;;;;;;9.82;2.70;;;13.40;1.00;;;;;;6154785;23;20033;-86
2023/07/14 01:32:49;;;;;;;5.25;2.33;;;13.50;1.00;;;;;;6153653;23;20036;-85
2023/07/14 01:35:41;;;;;;;6.72;3.03;;;13.70;99.90;;;;;;6156684;23;20458;-85
2023/07/14 01:38:30;;;;;;;;;;;13.80;99.90;;;;;;6157485;23;20029;-85
2023/07/14 01:41:17;;;;;;;5.63;2.78;;;13.90;99.90;;;;;;6156011;23;19917;-86
2023/07/14 01:44:09;;;;;;;6.32;2.72;;;13.80;99.90;;;;;;6155865;23;20108;-86
2023/07/14 01:46:57;;;;;;;5.72;2.72;;;13.80;99.90;;;;;;6155000;23;20032;-85
2023/07/14 01:49:47;;;;;;;6.40;2.58;;;13.70;99.90;;;;;;6164103;23;20039;-85
2023/07/14 01:52:34;;;;;;;5.72;2.47;;;13.60;1.00;;;;;;6156715;23;20026;-87
2023/07/14 01:55:28;;;;;;;6.97;2.67;;;13.60;99.90;;;;;;6156359;23;20349;-85
2023/07/14 01:58:25;;;;;;;5.53;2.20;;;13.60;99.90;;;;;;6157749;23;20410;-86
2023/07/14 02:01:16;;;;;;;3.45;2.53;;;13.60;99.90;;;;;;6156047;23;20041;-87
2023/07/14 02:04:05;;;;;;;5.90;2.70;;;13.70;99.90;;;;;;6156203;23;20045;-87
2023/07/14 02:06:56;;;;;;;3.47;2.47;;;13.70;99.90;;;;;;6158572;23;20126;-86
2023/07/14 02:09:44;;;;;;;7.78;2.80;;;13.60;99.90;;;;;;6155467;23;20448;-87
2023/07/14 02:12:32;;;;;;;6.68;3.10;;;13.50;99.90;;;;;;6155132;23;20405;-85
2023/07/14 02:15:28;;;;;;;6.88;2.83;;;13.40;99.90;;;;;;6156067;23;20021;-85
2023/07/14 02:18:20;;;;;;;7.22;2.90;;;13.20;1.00;;;;;;6156987;23;20601;-86
2023/07/14 02:21:08;;;;;;;7.78;3.10;;;13.20;1.00;;;;;;6156303;23;20308;-86
2023/07/14 02:23:59;;;;;;;6.20;3.05;;;13.10;1.00;;;;;;6155867;23;20036;-85
2023/07/14 02:26:55;;;;;;;7.53;3.08;;;13.10;1.00;;;;;;6156025;23;20065;-86
2023/07/14 02:29:43;;;;;;;4.82;2.92;;;13.00;1.00;;;;;;6155392;23;20036;-86
2023/07/14 02:32:35;;;;;;;6.85;3.33;;;13.00;1.00;;;;;;6155902;23;20029;-87
2023/07/14 02:35:49;;;;;;;5.33;3.10;;;13.00;1.00;;;;;;6157375;23;20021;-86
2023/07/14 02:38:37;;;;;;;6.63;2.88;;;12.90;1.00;;;;;;6158116;23;20264;-86
2023/07/14 02:41:38;;;;;;;3.30;2.70;;;12.90;1.00;;;;;;6158064;23;20453;-85
2023/07/14 02:44:32;;;;;;;10.90;3.03;;;12.90;2.30;;;;;;6155934;23;20032;-85
2023/07/14 02:47:21;;;;;;;7.45;3.05;;;12.90;8.10;;;;;;6156408;23;20026;-86
2023/07/14 02:50:11;;;;;;;4.03;2.70;;;13.00;10.20;;;;;;6159360;23;20056;-86
2023/07/14 02:52:58;;;;;;;5.93;3.00;;;12.90;16.10;;;;;;6156131;23;20032;-87
2023/07/14 02:55:46;;;;;;;5.20;2.97;;;12.90;15.30;;;;;;6156159;23;20040;-86
2023/07/14 02:58:34;;;;;;;4.60;2.58;;;12.80;23.80;;;;;;6155198;23;20030;-89
2023/07/14 03:01:22;;;;;;;4.50;2.67;;;12.70;26.90;;;;;;6154993;23;20044;-84
2023/07/14 03:04:12;;;;;;;6.03;3.15;;;12.60;42.60;;;;;;6157213;23;20096;-84
2023/07/14 03:06:59;;;;;;;4.65;3.15;;;12.60;78.90;;;;;;6156290;23;20270;-85
2023/07/14 03:09:46;;;;;;;7.72;3.15;;;12.50;99.90;;;;;;6154979;23;20325;-85
2023/07/14 03:12:34;;;;;;;4.63;3.22;;;12.40;99.90;;;;;;6154260;23;20022;-86
2023/07/14 03:15:21;;;;;;;6.78;3.20;;;12.30;99.90;;;;;;6155094;23;20026;-85
2023/07/14 03:18:08;;;;;;;6.63;3.13;;;12.30;99.90;;;;;;6155288;23;20413;-86
2023/07/14 03:20:57;;;;;;;4.47;2.85;;;12.20;99.90;;;;;;6154067;23;20565;-86
2023/07/14 03:23:44;;;;;;;5.30;3.25;;;12.20;99.90;;;;;;6155240;23;20109;-86
2023/07/14 03:26:32;;;;;;;6.85;3.03;;;12.20;99.90;;;;;;6154877;23;20061;-87
2023/07/14 03:29:19;;;;;;;6.03;3.20;;;12.20;99.90;;;;;;6155867;23;20025;-85
2023/07/14 03:32:12;;;;;;;6.30;3.10;;;12.30;99.90;;;;;;6175993;23;20437;-85
2023/07/14 03:35:01;;;;;;;;;;;12.30;99.90;;;;;;6156233;23;20472;-85
2023/07/14 03:37:51;;;;;;;7.47;3.40;;;12.30;1.00;;;;;;6158048;23;19924;-85
2023/07/14 03:40:38;;;;;;;15.73;3.70;;;12.20;1.00;;;;;;6155394;23;20104;-86
2023/07/14 03:43:25;;;;;;;7.70;3.50;;;12.10;1.00;;;;;;6155871;23;20029;-85
2023/07/14 03:46:13;;;;;;;15.93;5.00;;;12.10;82.10;;;;;;6154596;23;20116;-86
2023/07/14 03:49:01;;;;;;;7.20;3.05;;;12.20;99.90;;;;;;6155654;23;20025;-85
2023/07/14 03:51:48;;;;;;;7.60;3.63;;;12.40;12.00;;;;;;6173878;23;20022;-85
2023/07/14 03:54:36;;;;;;;8.65;3.92;;;12.40;1.00;;;;;;6153681;23;20028;-84
2023/07/14 03:57:23;;;;;;;8.20;3.38;;;12.60;1.00;;;;;;6155736;23;20039;-86
2023/07/14 04:00:16;;;;;;;6.38;3.20;;;12.60;99.90;;;;;;6155151;23;20314;-87
2023/07/14 04:03:39;;;;;;;9.02;3.42;;;12.80;99.90;;;;;;6154767;23;20021;-86
2023/07/14 04:06:28;;;;;;;6.78;3.83;;;12.90;99.90;;;;;;6152315;23;20029;-87
2023/07/14 04:09:15;;;;;;;7.75;3.40;;;12.90;99.90;;;;;;6153908;23;20025;-87
2023/07/14 04:12:03;;;;;;;5.93;3.20;;;12.90;99.90;;;;;;6133914;23;20029;-86
2023/07/14 04:14:53;;;;;;;6.20;3.63;;;13.00;99.90;;;;;;6153431;23;20029;-85
2023/07/14 04:17:40;;;;;;;5.53;3.22;;;13.10;99.90;;;;;;6152179;23;20299;-87
2023/07/14 04:20:28;;;;;;;6.88;3.22;;;13.20;99.90;;;;;;6134161;23;20026;-85
2023/07/14 04:23:17;;;;;;;6.82;3.20;;;13.30;99.90;;;;;;6153830;23;20441;-86
2023/07/14 04:26:07;;;;;;;8.00;4.03;;;13.50;99.90;;;;;;6153348;23;20445;-87
2023/07/14 04:28:57;;;;;;;6.38;3.42;;;13.60;95.60;;;;;;6152238;23;20414;-86
2023/07/14 04:31:44;;;;;;;8.20;4.00;;;13.70;58.10;;;;;;6153373;23;20029;-87
2023/07/14 04:34:32;;;;;;;7.85;4.25;;;13.80;14.70;;;;;;6153723;23;20033;-86
2023/07/14 04:37:22;;;;;;;8.48;3.53;;;13.80;1.00;;;;;;6156619;23;20309;-86
2023/07/14 04:40:10;;;;;;;6.32;3.60;;;13.70;1.00;;;;;;6154920;23;20026;-86
2023/07/14 04:43:18;;;;;;;7.63;3.50;;;13.70;1.00;;;;;;6154983;23;20064;-86
2023/07/14 04:46:06;;;;;;;6.93;3.53;;;13.70;1.00;;;;;;6154851;23;20782;-86
2023/07/14 04:48:53;;;;;;;7.97;3.72;;;13.80;1.00;;;;;;6155680;23;20030;-86
2023/07/14 04:51:41;;;;;;;7.68;3.35;;;13.90;1.00;;;;;;6154161;23;20029;-89
2023/07/14 04:58:37;;;;;;;6.15;3.35;;;14.20;1.00;;;;;;6155673;23;20033;-86
2023/07/14 05:01:24;;;;;;;11.30;3.88;;;14.40;1.00;;;;;;6158898;23;20026;-85
2023/07/14 05:04:13;;;;;;;6.85;3.70;;;14.50;1.00;;;;;;6154300;23;20108;-86
2023/07/14 05:07:03;;;;;;;6.95;3.30;;;14.50;1.00;;;;;;6172275;23;20033;-83
2023/07/14 05:12:32;;;;;;;8.17;3.50;;;14.90;1.00;;;;;;6164795;23;20353;-80
2023/07/14 05:15:22;;;;;;;10.85;3.45;;;15.00;1.00;;;;;;6156635;23;20033;-80
2023/07/14 05:18:11;;;;;;;7.18;3.33;;;15.10;1.00;;;;;;6097420;23;20027;-80
2023/07/14 05:21:01;;;;;;;7.30;3.38;;;15.10;1.00;;;;;;6125949;23;20034;-80
2023/07/14 05:23:48;;;;;;;5.47;3.20;;;15.20;99.90;;;;;;6126236;23;20036;-79
2023/07/14 05:26:36;;;;;;;11.27;3.50;;;15.20;99.90;;;;;;6126946;23;20030;-79
2023/07/14 05:29:26;;;;;;;9.98;3.25;;;15.20;99.90;;;;;;6126750;23;20034;-81
2023/07/14 05:32:13;;;;;;;10.80;3.35;;;15.30;99.90;;;;;;6103454;23;20041;-79
2023/07/14 05:35:00;;;;;;;8.60;3.55;;;15.30;99.90;;;;;;6124925;23;20026;-81
2023/07/14 05:37:47;;;;;;;11.50;3.75;;;15.50;99.90;;;;;;6125990;23;20044;-82
2023/07/14 05:40:34;;;;;;;9.57;3.47;;;15.50;99.90;;;;;;6124354;23;20026;-82
2023/07/14 05:43:44;;;;;;;8.93;3.95;;;15.70;99.90;;;;;;6126937;23;20484;-85
2023/07/14 05:46:31;;;;;;;9.25;3.38;;;16.00;99.90;;;;;;6122885;23;20037;-84
2023/07/14 05:49:21;;;;;;;9.80;3.70;;;16.00;99.90;;;;;;6128806;23;20030;-90
2023/07/14 05:52:10;;;;;;;6.80;3.17;;;16.20;99.90;;;;;;6104736;23;20044;-87
2023/07/14 05:54:57;;;;;;;9.77;2.85;;;16.30;99.90;;;;;;6104186;23;20113;-85
2023/07/14 05:57:45;;;;;;;5.78;3.08;;;16.60;99.90;;;;;;6105105;23;20029;-89
2023/07/14 06:00:38;;;;;;;6.57;3.08;;;16.70;99.90;;;;;;6106398;23;20394;-87
2023/07/14 06:03:26;;;;;;;4.45;2.97;;;16.80;99.90;;;;;;6124285;23;20087;-86
2023/07/14 06:06:16;;;;;;;7.80;3.15;;;16.80;99.90;;;;;;6103896;23;20034;-87
2023/07/14 06:09:05;;;;;;;10.75;3.08;;;16.60;99.90;;;;;;6125187;23;20052;-86
2023/07/14 06:11:52;;;;;;;7.35;3.08;;;16.50;99.90;;;;;;6127829;23;20136;-86
2023/07/14 06:14:40;;;;;;;6.00;3.17;;;16.50;99.90;;;;;;6128868;23;20037;-86
2023/07/14 06:17:28;;;;;;;7.82;3.38;;;16.40;99.90;;;;;;6123660;23;20038;-86
2023/07/14 06:20:16;;;;;;;8.55;2.92;;;16.50;99.90;;;;;;6172891;23;20028;-84
2023/07/14 06:23:03;;;;;;;10.27;2.85;;;16.70;99.90;;;;;;6182786;23;20033;-84
2023/07/14 06:25:51;;;;;;;8.00;2.90;;;16.90;99.90;;;;;;6185657;23;20099;-82
2023/07/14 06:28:40;;;;;;;6.88;2.33;;;17.20;99.90;;;;;;6182551;23;20374;-83
2023/07/14 06:31:32;;;;;;;8.15;2.47;;;17.30;99.90;;;;;;6162634;23;20029;-87
2023/07/14 06:34:22;;;;;;;4.90;2.75;;;17.60;99.90;;;;;;6163018;23;20029;-86
2023/07/14 06:37:09;;;;;;;6.40;2.30;;;17.90;99.90;;;;;;6184124;23;20163;-88
2023/07/14 06:39:57;;;;;;;5.57;2.35;;;18.10;99.90;;;;;;6185582;23;20025;-88
2023/07/14 06:42:44;;;;;;;4.20;2.15;;;18.30;99.90;;;;;;6184891;23;20445;-87
2023/07/14 06:45:33;;;;;;;4.35;2.00;;;18.30;99.90;;;;;;6184914;23;20021;-86
2023/07/14 06:48:21;;;;;;;10.98;2.45;;;18.60;99.90;;;;;;6186936;23;20423;-86
2023/07/14 06:51:52;;;;;;;4.40;1.95;;;18.90;99.90;;;;;;6161866;23;20408;-88
2023/07/14 06:54:55;;;;;;;;;;;;;;;;;;;;;
2023/07/14 07:01:45;;;;;;;6.28;2.00;;;19.80;57.60;;;;;;6091659;23;20070;-87
2023/07/14 07:04:47;;;;;;;5.07;2.22;;;19.90;34.60;;;;;;6094536;23;20030;-87
2023/07/14 07:07:53;;;;;;;9.38;1.90;;;20.20;17.90;;;;;;6180299;23;20333;-87
2023/07/14 07:11:24;;;;;;;4.63;1.88;;;20.50;17.00;;;;;;6180436;23;20094;-87
2023/07/14 07:14:20;;;;;;;2.78;1.70;;;20.70;1.00;;;;;;6183796;23;20025;-87
2023/07/14 07:17:14;;;;;;;7.80;2.10;;;20.90;1.00;;;;;;6165370;23;20021;-86
2023/07/14 07:21:15;;;;;;;;;;;;;;;;;;;;;
2023/07/14 07:25:31;;;;;;;;;;;;;;;;;;;;;
2023/07/14 07:29:20;;;;;;;4.63;1.70;;;22.00;1.00;;;;;;6078042;23;20185;-90
2023/07/14 07:32:26;;;;;;;5.75;1.58;;;22.80;1.00;;;;;;6122220;23;20032;-88
2023/07/14 07:35:54;;;;;;;5.53;1.50;;;23.30;1.00;;;;;;6049776;23;20029;-91
2023/07/14 07:52:05;;;;;;;5.60;1.60;;;24.60;1.00;;;;;;5924691;23;20033;-91
2023/07/14 07:54:56;;;;;;;2.95;1.48;;;24.90;1.00;;;;;;5927043;23;20016;-87
2023/07/14 07:58:31;;;;;;;3.63;1.45;;;25.20;1.00;;;;;;6009062;23;20385;-88
2023/07/14 08:18:45;;;;;;;;;;;;;;;;;;;;;
2023/07/14 08:34:41;;;;;;;;;;;;;;;;;;;;;
2023/07/14 08:41:41;;;;;;;6.55;1.83;;;25.40;1.00;;;;;;5981683;24;20440;-88
2023/07/14 08:45:36;;;;;;;5.05;1.48;;;25.50;1.00;;;;;;5951242;24;20024;-90
2023/07/14 08:48:48;;;;;;;5.07;1.67;;;25.90;1.00;;;;;;5880552;24;20045;-86
2023/07/14 08:51:44;;;;;;;6.45;1.40;;;26.50;1.00;;;;;;5968685;23;20043;-84
2023/07/14 08:55:04;;;;;;;5.32;1.52;;;26.20;1.00;;;;;;6120773;23;20021;-88
2023/07/14 09:03:48;;;;;;;;;;;;;;;;;;;;;
2023/07/14 09:07:27;;;;;;;3.70;1.67;;;26.00;1.00;;;;;;5898440;24;20021;-88
2023/07/14 09:10:16;;;;;;;3.05;1.45;;;26.00;1.00;;;;;;5897607;24;20498;-89
2023/07/14 09:13:15;;;;;;;2.97;1.33;;;26.00;1.00;;;;;;5898155;24;20112;-89
2023/07/14 09:16:17;;;;;;;4.05;1.58;;;26.30;1.00;;;;;;5986937;23;20038;-87
2023/07/14 09:23:46;;;;;;;;;;;;;;;;;;;;;
2023/07/14 09:26:56;;;;;;;4.03;1.40;;;27.30;1.00;;;;;;6139883;23;20305;-87
2023/07/14 09:29:51;;;;;;;3.40;1.35;;;27.50;1.00;;;;;;6154145;23;20041;-86
2023/07/14 09:32:42;;;;;;;4.80;1.40;;;27.90;1.00;;;;;;6132415;23;20109;-87
2023/07/14 09:44:32;;;;;;;;;;;;;;;;;;;;;
2023/07/14 09:52:27;;;;;;;5.25;1.50;;;26.60;1.00;;;;;;5929240;24;20063;-87
2023/07/14 10:11:55;;;;;;;2.03;1.40;;;25.90;1.00;;;;;;5912924;24;20017;-88
2023/07/14 10:14:55;;;;;;;6.28;1.55;;;26.00;1.00;;;;;;5913272;24;20037;-87
2023/07/14 10:17:45;;;;;;;3.83;1.27;;;26.00;1.00;;;;;;5927648;24;20062;-86
2023/07/14 10:20:42;;;;;;;4.05;1.50;;;25.90;1.00;;;;;;5925968;24;20485;-86
2023/07/14 10:28:53;;;;;;;3.80;1.35;;;26.10;1.00;;;;;;6066792;23;20022;-88
2023/07/14 10:32:27;;;;;;;2.95;1.27;;;26.40;1.00;;;;;;6039393;23;20067;-89
2023/07/14 10:40:22;;;;;;;4.20;1.58;;;27.80;1.00;;;;;;5872947;24;20021;-91
2023/07/14 11:36:53;;;;;;;;;;;;;;;;;;;;;
2023/07/14 11:49:16;;;;;;;;;;;;;;;;;;;;;
2023/07/14 11:53:27;;;;;;;;;;;;;;;;;;;;;
2023/07/14 12:06:09;;;;;;;;;;;;;;;;;;;;;
2023/07/14 12:13:48;;;;;;;;;;;;;;;;;;;;;
2023/07/14 12:17:30;;;;;;;3.97;1.58;;;29.30;1.00;;;;;;6230312;22;20019;-89
2023/07/14 12:20:40;;;;;;;2.55;1.13;;;29.10;1.00;;;;;;6253510;22;20030;-86
2023/07/14 12:28:03;;;;;;;2.60;1.02;;;31.40;1.00;;;;;;6154553;23;20025;-91
2023/07/14 12:30:53;;;;;;;3.08;1.50;;;31.40;1.00;;;;;;6150066;23;20026;-82
2023/07/14 12:33:40;;;;;;;4.43;1.55;;;31.60;1.00;;;;;;6150585;23;20429;-82
2023/07/14 12:36:31;;;;;;;3.25;1.02;;;31.60;1.00;;;;;;6151249;23;20025;-83
2023/07/14 12:39:21;;;;;;;4.20;1.13;;;33.10;1.00;;;;;;6130725;22;20025;-83
2023/07/14 12:42:09;;;;;;;2.40;1.38;;;32.90;1.00;;;;;;6251934;22;20096;-83
2023/07/14 12:44:58;;;;;;;4.25;1.60;;;33.20;1.00;;;;;;6273621;22;20108;-87
2023/07/14 12:47:48;;;;;;;4.28;1.48;;;32.20;1.00;;;;;;6250211;22;20476;-84
2023/07/14 12:50:40;;;;;;;3.05;1.45;;;32.90;1.00;;;;;;6273849;22;20033;-85
2023/07/14 12:53:31;;;;;;;5.55;1.38;;;33.70;1.00;;;;;;6252732;22;20051;-87
2023/07/14 12:56:19;;;;;;;3.63;1.30;;;35.20;1.00;;;;;;6273561;22;20066;-87
2023/07/14 12:59:16;;;;;;;4.75;1.48;;;36.90;99.90;;;;;;6272237;22;20039;-82
2023/07/14 13:02:12;;;;;;;2.90;1.42;;;35.60;99.90;;;;;;6275144;22;20073;-85
2023/07/14 13:05:00;;;;;;;6.10;1.67;;;34.10;99.90;;;;;;6272567;22;20331;-88
2023/07/14 13:07:53;;;;;;;5.45;1.48;;;33.40;99.90;;;;;;6251502;22;20034;-86
2023/07/14 13:10:42;;;;;;;4.75;1.30;;;34.30;99.90;;;;;;6274637;22;20129;-84
2023/07/14 13:13:44;;;;;;;4.95;1.20;;;34.90;99.90;;;;;;6250496;22;20034;-83
2023/07/14 13:16:33;;;;;;;1.98;1.17;;;35.20;99.90;;;;;;6273775;22;20034;-82
2023/07/14 13:19:36;;;;;;;4.00;1.10;;;34.80;99.90;;;;;;6273096;22;20421;-83
2023/07/14 13:22:31;;;;;;;;;;;33.70;99.90;;;;;;6276609;22;20098;-83
2023/07/14 13:25:26;;;;;;;2.22;1.20;;;33.10;99.90;;;;;;6249688;22;19915;-81
2023/07/14 13:28:40;;;;;;;;;;;33.30;99.90;;;;;;6271536;22;20283;-84
2023/07/14 13:31:55;;;;;;;3.03;1.27;;;32.50;99.90;;;;;;6273754;22;19985;-81
2023/07/14 13:35:18;;;;;;;2.10;1.30;;;32.40;99.90;;;;;;6256775;22;20015;-81
2023/07/14 13:38:13;;;;;;;2.90;1.23;;;33.30;99.90;;;;;;6273066;22;20403;-80
2023/07/14 13:41:20;;;;;;;4.05;1.30;;;33.70;99.90;;;;;;6273599;22;20283;-81
2023/07/14 13:44:30;;;;;;;5.38;1.35;;;35.10;99.90;;;;;;6272621;22;20024;-81
2023/07/14 13:47:28;;;;;;;1.48;1.00;;;36.20;99.90;;;;;;6273394;22;20023;-83
2023/07/14 13:50:17;;;;;;;2.63;1.15;;;34.80;99.90;;;;;;6271984;22;20032;-80
2023/07/14 13:53:10;;;;;;;1.63;1.23;;;32.90;99.90;;;;;;6274586;22;20024;-81
2023/07/14 13:56:30;;;;;;;4.53;1.17;;;33.60;99.90;;;;;;6271892;22;20095;-82
2023/07/14 13:59:18;;;;;;;4.93;1.58;;;33.80;99.90;;;;;;6272452;22;20198;-82
2023/07/14 14:02:44;;;;;;;2.10;1.30;;;33.90;99.90;;;;;;6273469;22;20027;-83
2023/07/14 14:05:37;;;;;;;2.45;1.40;;;32.30;99.90;;;;;;6249737;22;20019;-83
2023/07/14 14:08:24;;;;;;;3.67;1.38;;;32.10;99.90;;;;;;6274242;22;20030;-81
2023/07/14 14:11:14;;;;;;;3.97;1.27;;;32.70;99.90;;;;;;6272803;22;20035;-85
2023/07/14 14:14:11;;;;;;;4.50;1.40;;;34.20;99.90;;;;;;6253872;22;20042;-84
2023/07/14 14:17:08;;;;;;;2.28;1.48;;;34.90;99.90;;;;;;6272343;22;20045;-84
2023/07/14 14:19:56;;;;;;;2.83;1.30;;;35.00;99.90;;;;;;6272937;22;20342;-84
2023/07/14 14:22:47;;;;;;;2.15;1.27;;;35.00;99.90;;;;;;6275231;22;20153;-84
2023/07/14 14:25:48;;;;;;;2.08;1.30;;;33.50;99.90;;;;;;6273612;22;20333;-81
2023/07/14 14:28:35;;;;;;;2.22;1.35;;;32.80;99.90;;;;;;6250552;22;20020;-84
2023/07/14 14:31:31;;;;;;;1.60;1.10;;;33.40;99.90;;;;;;6271953;22;20363;-81
2023/07/14 14:34:40;;;;;;;2.28;1.30;;;34.10;99.90;;;;;;6250927;22;20055;-82
2023/07/14 14:38:31;;;;;;;;;;;;;;;;;;;;;
2023/07/14 14:42:33;;;;;;;3.00;1.27;;;35.60;99.90;;;;;;6271988;22;20030;-84
2023/07/14 14:49:38;;;;;;;1.13;1.02;;;34.10;99.90;;;;;;6278420;22;20011;-86
2023/07/14 14:53:03;;;;;;;;;;;;;;;;;;;;;
2023/07/14 15:00:45;;;;;;;;;;;;;;;;;;;;;
2023/07/14 15:04:27;;;;;;;3.38;1.30;;;34.10;99.90;;;;;;6196875;23;20025;-85
2023/07/14 15:08:07;;;;;;;;;;;;;;;;;;;;;
2023/07/14 15:11:09;;;;;;;2.17;1.45;;;32.70;99.90;;;;;;6188417;23;20445;-88
2023/07/14 15:14:35;;;;;;;2.83;1.40;;;32.70;99.90;;;;;;6194091;23;20033;-85
2023/07/14 15:18:21;;;;;;;3.65;1.42;;;33.00;99.90;;;;;;6120330;23;20026;-90
2023/07/14 15:21:27;;;;;;;1.90;1.33;;;33.00;99.90;;;;;;6177083;23;20087;-85
2023/07/14 15:24:19;;;;;;;1.83;1.13;;;32.10;99.90;;;;;;6178144;22;20085;-87
2023/07/14 15:27:59;;;;;;;2.85;1.48;;;32.10;99.90;;;;;;6263694;22;20024;-89
2023/07/14 15:31:00;;;;;;;2.35;1.40;;;33.20;99.90;;;;;;6240875;22;20092;-86
2023/07/14 15:33:49;;;;;;;2.88;1.50;;;33.80;99.90;;;;;;6277097;22;20028;-87
2023/07/14 15:37:19;;;;;;;4.68;1.35;;;33.30;99.90;;;;;;6276571;22;20043;-83
2023/07/14 15:44:30;;;;;;;3.88;1.38;;;32.20;99.90;;;;;;6185373;22;20314;-88
2023/07/14 15:47:25;;;;;;;5.13;1.40;;;32.30;99.90;;;;;;6254435;22;20276;-91
2023/07/14 15:50:26;;;;;;;;;;;;;;;;;;;;;
2023/07/14 15:53:38;;;;;;;3.90;1.40;;;31.90;99.90;;;;;;6271989;22;20027;-89
2023/07/14 15:56:37;;;;;;;4.55;1.60;;;32.90;99.90;;;;;;6254397;22;20105;-85
2023/07/14 15:59:29;;;;;;;3.30;1.58;;;31.60;99.90;;;;;;6278009;22;20038;-90
2023/07/14 16:02:17;;;;;;;2.22;1.67;;;30.60;99.90;;;;;;6256267;22;20031;-85
2023/07/14 16:05:07;;;;;;;3.47;1.70;;;30.50;99.90;;;;;;6253050;22;20033;-88
2023/07/14 16:08:28;;;;;;;3.20;1.52;;;29.90;99.90;;;;;;6280100;22;20154;-86
2023/07/14 16:11:42;;;;;;;6.63;1.70;;;29.50;99.90;;;;;;6286401;22;20024;-88
2023/07/14 16:14:43;;;;;;;;;;;;;;;;;;;;;
2023/07/14 16:18:20;;;;;;;;;;;;;;;;;;;;;
2023/07/14 16:21:43;;;;;;;4.30;1.38;;;28.80;99.90;;;;;;6267929;22;20023;-86
2023/07/14 16:24:37;;;;;;;3.10;1.33;;;28.60;99.90;;;;;;6279418;22;20280;-87
2023/07/14 16:27:26;;;;;;;3.58;1.85;;;28.30;99.90;;;;;;6280576;22;20082;-87
2023/07/14 16:30:19;;;;;;;3.97;1.45;;;28.20;99.90;;;;;;6260107;22;20020;-92
2023/07/14 16:33:11;;;;;;;4.82;1.73;;;28.10;99.90;;;;;;6258185;22;20027;-89
2023/07/14 16:36:01;;;;;;;4.30;1.80;;;27.90;99.90;;;;;;6284923;22;20028;-87
2023/07/14 16:38:49;;;;;;;2.75;1.70;;;27.80;99.90;;;;;;6281632;22;20081;-85
2023/07/14 16:41:39;;;;;;;1.70;1.40;;;27.80;99.90;;;;;;6254490;22;20037;-86
2023/07/14 16:44:26;;;;;;;5.18;1.60;;;27.60;99.90;;;;;;6255665;22;20043;-88
2023/07/14 16:47:14;;;;;;;3.03;1.52;;;27.50;99.90;;;;;;6258225;22;20415;-86
2023/07/14 16:50:09;;;;;;;1.67;1.27;;;27.50;99.90;;;;;;6254784;22;20023;-87
2023/07/14 16:52:56;;;;;;;1.63;1.40;;;27.40;99.90;;;;;;6276829;22;20023;-87
2023/07/14 16:55:46;;;;;;;3.47;1.40;;;27.20;99.90;;;;;;6278506;22;20020;-88
2023/07/14 16:58:34;;;;;;;2.05;1.50;;;27.20;99.90;;;;;;6275929;22;20030;-87
2023/07/14 17:01:23;;;;;;;2.25;1.60;;;27.30;99.90;;;;;;6275780;22;20378;-86
2023/07/14 17:04:35;;;;;;;3.33;1.73;;;27.30;99.90;;;;;;6253105;22;20427;-87
2023/07/14 17:07:25;;;;;;;2.85;1.42;;;27.20;99.90;;;;;;6276189;22;20024;-86
2023/07/14 17:10:13;;;;;;;3.30;1.52;;;27.10;99.90;;;;;;6259611;22;20035;-87
2023/07/14 17:13:03;;;;;;;4.78;1.67;;;27.00;99.90;;;;;;6274144;22;20077;-88
2023/07/14 17:16:11;;;;;;;3.15;1.55;;;27.00;99.90;;;;;;6258128;22;20304;-86
2023/07/14 17:19:08;;;;;;;2.92;1.60;;;27.00;99.90;;;;;;6231266;22;20135;-86
2023/07/14 17:22:01;;;;;;;3.25;1.52;;;27.00;99.90;;;;;;6273794;22;20043;-86
2023/07/14 17:24:51;;;;;;;2.80;1.50;;;27.00;99.90;;;;;;6254076;22;20024;-89
2023/07/14 17:27:39;;;;;;;5.00;1.88;;;26.90;99.90;;;;;;6277364;22;20100;-88
2023/07/14 17:30:26;;;;;;;4.57;1.98;;;26.90;99.90;;;;;;6257923;22;20023;-86
2023/07/14 17:33:26;;;;;;;2.90;1.90;;;26.80;99.90;;;;;;6276085;22;20035;-86
2023/07/14 17:36:14;;;;;;;3.25;1.70;;;26.80;99.90;;;;;;6256149;22;20086;-89
2023/07/14 17:39:04;;;;;;;5.43;1.70;;;26.60;99.90;;;;;;6257655;22;20032;-89
2023/07/14 17:41:52;;;;;;;2.30;1.50;;;26.50;99.90;;;;;;6256228;22;20028;-89
2023/07/14 17:44:43;;;;;;;2.33;1.50;;;26.60;99.90;;;;;;6275887;22;20070;-88
2023/07/14 17:47:30;;;;;;;6.15;1.85;;;26.50;99.90;;;;;;6277338;22;20023;-88
2023/07/14 17:50:21;;;;;;;2.38;1.48;;;26.40;99.90;;;;;;6274816;22;20077;-88
2023/07/14 17:53:34;;;;;;;4.10;1.55;;;26.30;99.90;;;;;;6254773;22;20034;-89
2023/07/14 17:56:21;;;;;;;2.25;1.80;;;26.30;99.90;;;;;;6272465;22;20031;-87
2023/07/14 17:59:21;;;;;;;5.43;3.28;;;26.20;99.90;;;;;;6249975;22;20032;-87
2023/07/14 18:02:22;;;;;;;3.05;2.25;;;26.20;99.90;;;;;;6276393;22;20037;-87
2023/07/14 18:05:24;;;;;;;4.85;1.80;;;26.10;99.90;;;;;;6277247;22;20027;-87
2023/07/14 18:08:14;;;;;;;3.97;2.40;;;26.10;1.00;;;;;;6276068;22;20077;-87
2023/07/14 18:11:24;;;;;;;3.50;1.60;;;26.00;99.90;;;;;;6255077;22;20024;-93
2023/07/14 18:14:15;;;;;;;14.00;2.50;;;26.00;99.90;;;;;;6275663;22;20425;-88
2023/07/14 18:17:02;;;;;;;2.83;1.60;;;25.90;99.90;;;;;;6274806;22;20379;-88
2023/07/14 18:19:53;;;;;;;4.35;1.77;;;25.80;99.90;;;;;;6275384;22;20097;-88
2023/07/14 18:22:42;;;;;;;3.50;1.80;;;25.60;99.90;;;;;;6276603;22;20063;-86
2023/07/14 18:25:32;;;;;;;2.10;1.90;;;25.50;99.90;;;;;;6276660;22;20027;-89
2023/07/14 18:28:30;;;;;;;3.50;1.80;;;25.40;99.90;;;;;;6276733;22;20080;-86
2023/07/14 18:31:43;;;;;;;1.73;1.40;;;25.20;99.90;;;;;;6273557;22;20032;-88
2023/07/14 18:34:39;;;;;;;3.60;1.80;;;25.10;1.00;;;;;;6252667;22;20028;-88
2023/07/14 18:37:53;;;;;;;5.22;2.08;;;25.00;99.90;;;;;;6253754;22;20028;-87
2023/07/14 18:40:45;;;;;;;4.10;1.77;;;25.00;1.00;;;;;;6258399;22;20046;-89
2023/07/14 18:43:46;;;;;;;;;;;24.90;1.00;;;;;;6258393;22;20102;-90
2023/07/14 18:46:33;;;;;;;6.90;2.10;;;24.80;1.00;;;;;;6279632;22;19915;-88
2023/07/14 18:49:25;;;;;;;6.80;2.10;;;24.70;1.00;;;;;;6279074;22;20027;-89
2023/07/14 18:52:14;;;;;;;3.70;2.30;;;24.60;1.00;;;;;;6254446;22;20035;-88
2023/07/14 18:55:01;;;;;;;6.53;2.08;;;24.50;1.00;;;;;;6278551;22;20027;-88
2023/07/14 18:57:49;;;;;;;8.35;2.05;;;24.40;1.00;;;;;;6277670;22;20054;-89
2023/07/14 19:00:36;;;;;;;7.10;2.13;;;24.30;1.00;;;;;;6279724;22;20051;-89
2023/07/14 19:03:32;;;;;;;3.13;1.98;;;24.20;1.00;;;;;;6254610;22;20024;-88
2023/07/14 19:06:26;;;;;;;3.50;2.05;;;24.20;1.00;;;;;;6274644;22;20028;-85
2023/07/14 19:09:24;;;;;;;3.60;2.25;;;24.10;1.00;;;;;;6258534;22;20415;-89
2023/07/14 19:12:15;;;;;;;3.13;2.30;;;24.00;1.00;;;;;;6277819;22;20047;-89
2023/07/14 19:15:19;;;;;;;4.50;2.50;;;23.80;1.00;;;;;;6280315;22;20175;-88